sensor_id;sensor_type;location;lat;lon;timestamp;P1;durP1;ratioP1;P2;durP2;ratioP2
76423;SDS011;65257;52.104;4.268;2024-02-23T00:01:25;23.67;;;3.80;;
76423;SDS011;65257;52.104;4.268;2024-02-23T00:03:51;21.42;;;3.97;;
76423;SDS011;65257;52.104;4.268;2024-02-23T00:06:17;22.25;;;3.60;;
76423;SDS011;65257;52.104;4.268;2024-02-23T00:08:43;15.18;;;4.38;;
76423;SDS011;65257;52.104;4.268;2024-02-23T00:11:08;15.48;;;3.10;;
76423;SDS011;65257;52.104;4.268;2024-02-23T00:13:34;27.63;;;3.80;;
76423;SDS011;65257;52.104;4.268;2024-02-23T00:15:59;23.55;;;6.10;;
76423;SDS011;65257;52.104;4.268;2024-02-23T00:18:25;21.70;;;4.95;;
76423;SDS011;65257;52.104;4.268;2024-02-23T00:20:50;17.63;;;4.35;;
76423;SDS011;65257;52.104;4.268;2024-02-23T00:23:16;20.50;;;3.53;;
76423;SDS011;65257;52.104;4.268;2024-02-23T00:25:41;26.70;;;4.00;;
76423;SDS011;65257;52.104;4.268;2024-02-23T00:28:06;7.63;;;2.80;;
76423;SDS011;65257;52.104;4.268;2024-02-23T00:30:32;16.67;;;3.13;;
76423;SDS011;65257;52.104;4.268;2024-02-23T00:32:58;9.05;;;2.67;;
76423;SDS011;65257;52.104;4.268;2024-02-23T00:35:23;20.25;;;3.42;;
76423;SDS011;65257;52.104;4.268;2024-02-23T00:37:48;16.02;;;3.13;;
76423;SDS011;65257;52.104;4.268;2024-02-23T00:40:14;18.63;;;3.33;;
76423;SDS011;65257;52.104;4.268;2024-02-23T00:42:39;16.25;;;3.45;;
76423;SDS011;65257;52.104;4.268;2024-02-23T00:45:05;10.63;;;3.10;;
76423;SDS011;65257;52.104;4.268;2024-02-23T00:47:31;20.60;;;2.72;;
76423;SDS011;65257;52.104;4.268;2024-02-23T00:49:56;11.13;;;2.50;;
76423;SDS011;65257;52.104;4.268;2024-02-23T00:52:21;16.00;;;3.15;;
76423;SDS011;65257;52.104;4.268;2024-02-23T00:54:47;17.75;;;3.80;;
76423;SDS011;65257;52.104;4.268;2024-02-23T00:57:12;21.17;;;4.28;;
76423;SDS011;65257;52.104;4.268;2024-02-23T00:59:38;17.63;;;3.88;;
76423;SDS011;65257;52.104;4.268;2024-02-23T01:02:03;11.90;;;2.97;;
76423;SDS011;65257;52.104;4.268;2024-02-23T01:04:30;17.13;;;4.60;;
76423;SDS011;65257;52.104;4.268;2024-02-23T01:06:55;14.13;;;3.50;;
76423;SDS011;65257;52.104;4.268;2024-02-23T01:09:20;23.40;;;4.22;;
76423;SDS011;65257;52.104;4.268;2024-02-23T01:11:46;12.73;;;3.10;;
76423;SDS011;65257;52.104;4.268;2024-02-23T01:14:13;18.42;;;4.20;;
76423;SDS011;65257;52.104;4.268;2024-02-23T01:16:38;19.50;;;4.55;;
76423;SDS011;65257;52.104;4.268;2024-02-23T01:19:03;19.50;;;4.28;;
76423;SDS011;65257;52.104;4.268;2024-02-23T01:21:29;14.55;;;3.55;;
76423;SDS011;65257;52.104;4.268;2024-02-23T01:23:55;13.60;;;2.78;;
76423;SDS011;65257;52.104;4.268;2024-02-23T01:26:22;19.88;;;4.10;;
76423;SDS011;65257;52.104;4.268;2024-02-23T01:28:48;26.08;;;4.18;;
76423;SDS011;65257;52.104;4.268;2024-02-23T01:31:13;19.90;;;4.07;;
76423;SDS011;65257;52.104;4.268;2024-02-23T01:33:39;33.58;;;5.13;;
76423;SDS011;65257;52.104;4.268;2024-02-23T01:36:07;15.23;;;3.70;;
76423;SDS011;65257;52.104;4.268;2024-02-23T01:38:32;11.48;;;3.33;;
76423;SDS011;65257;52.104;4.268;2024-02-23T01:40:59;34.85;;;4.18;;
76423;SDS011;65257;52.104;4.268;2024-02-23T01:43:24;12.57;;;4.00;;
76423;SDS011;65257;52.104;4.268;2024-02-23T01:45:50;10.85;;;2.92;;
76423;SDS011;65257;52.104;4.268;2024-02-23T01:48:16;12.88;;;2.42;;
76423;SDS011;65257;52.104;4.268;2024-02-23T01:50:42;12.10;;;3.00;;
76423;SDS011;65257;52.104;4.268;2024-02-23T01:53:08;11.82;;;2.38;;
76423;SDS011;65257;52.104;4.268;2024-02-23T01:55:35;11.77;;;3.03;;
76423;SDS011;65257;52.104;4.268;2024-02-23T01:58:02;17.42;;;3.20;;
76423;SDS011;65257;52.104;4.268;2024-02-23T02:00:29;16.83;;;2.60;;
76423;SDS011;65257;52.104;4.268;2024-02-23T02:02:55;8.57;;;2.85;;
76423;SDS011;65257;52.104;4.268;2024-02-23T02:05:20;24.05;;;4.38;;
76423;SDS011;65257;52.104;4.268;2024-02-23T02:07:46;12.77;;;3.33;;
76423;SDS011;65257;52.104;4.268;2024-02-23T02:10:15;23.55;;;4.22;;
76423;SDS011;65257;52.104;4.268;2024-02-23T02:12:42;25.73;;;4.45;;
76423;SDS011;65257;52.104;4.268;2024-02-23T02:15:07;21.02;;;4.00;;
76423;SDS011;65257;52.104;4.268;2024-02-23T02:17:33;19.27;;;3.78;;
76423;SDS011;65257;52.104;4.268;2024-02-23T02:19:59;37.97;;;5.32;;
76423;SDS011;65257;52.104;4.268;2024-02-23T02:22:34;18.85;;;3.58;;
76423;SDS011;65257;52.104;4.268;2024-02-23T02:25:00;22.67;;;4.00;;
76423;SDS011;65257;52.104;4.268;2024-02-23T02:27:25;23.65;;;5.28;;
76423;SDS011;65257;52.104;4.268;2024-02-23T02:29:51;22.45;;;4.20;;
76423;SDS011;65257;52.104;4.268;2024-02-23T02:32:16;26.95;;;5.25;;
76423;SDS011;65257;52.104;4.268;2024-02-23T02:34:42;35.15;;;7.47;;
76423;SDS011;65257;52.104;4.268;2024-02-23T02:37:07;20.25;;;3.05;;
76423;SDS011;65257;52.104;4.268;2024-02-23T02:39:33;25.08;;;3.60;;
76423;SDS011;65257;52.104;4.268;2024-02-23T02:41:58;21.52;;;4.32;;
76423;SDS011;65257;52.104;4.268;2024-02-23T02:44:24;22.75;;;3.90;;
76423;SDS011;65257;52.104;4.268;2024-02-23T02:46:49;18.88;;;4.20;;
76423;SDS011;65257;52.104;4.268;2024-02-23T02:49:15;20.25;;;3.78;;
76423;SDS011;65257;52.104;4.268;2024-02-23T02:51:40;18.33;;;3.38;;
76423;SDS011;65257;52.104;4.268;2024-02-23T02:54:06;25.38;;;3.25;;
76423;SDS011;65257;52.104;4.268;2024-02-23T02:56:31;18.50;;;3.67;;
76423;SDS011;65257;52.104;4.268;2024-02-23T02:58:56;18.33;;;4.05;;
76423;SDS011;65257;52.104;4.268;2024-02-23T03:01:22;14.80;;;2.75;;
76423;SDS011;65257;52.104;4.268;2024-02-23T03:03:47;22.83;;;4.65;;
76423;SDS011;65257;52.104;4.268;2024-02-23T03:06:12;20.73;;;3.58;;
76423;SDS011;65257;52.104;4.268;2024-02-23T03:08:38;11.13;;;2.33;;
76423;SDS011;65257;52.104;4.268;2024-02-23T03:11:03;20.13;;;3.78;;
76423;SDS011;65257;52.104;4.268;2024-02-23T03:13:28;31.67;;;5.50;;
76423;SDS011;65257;52.104;4.268;2024-02-23T03:15:54;24.23;;;3.10;;
76423;SDS011;65257;52.104;4.268;2024-02-23T03:18:20;14.35;;;3.47;;
76423;SDS011;65257;52.104;4.268;2024-02-23T03:20:45;12.73;;;4.15;;
76423;SDS011;65257;52.104;4.268;2024-02-23T03:23:11;18.08;;;2.85;;
76423;SDS011;65257;52.104;4.268;2024-02-23T03:25:36;16.40;;;3.38;;
76423;SDS011;65257;52.104;4.268;2024-02-23T03:28:02;21.30;;;3.70;;
76423;SDS011;65257;52.104;4.268;2024-02-23T03:30:27;25.58;;;4.80;;
76423;SDS011;65257;52.104;4.268;2024-02-23T03:32:52;17.85;;;3.58;;
76423;SDS011;65257;52.104;4.268;2024-02-23T03:35:18;24.23;;;4.88;;
76423;SDS011;65257;52.104;4.268;2024-02-23T03:37:43;23.05;;;4.15;;
76423;SDS011;65257;52.104;4.268;2024-02-23T03:40:09;12.00;;;2.70;;
76423;SDS011;65257;52.104;4.268;2024-02-23T03:42:35;12.68;;;3.08;;
76423;SDS011;65257;52.104;4.268;2024-02-23T03:45:01;16.33;;;3.67;;
76423;SDS011;65257;52.104;4.268;2024-02-23T03:47:27;21.40;;;3.78;;
76423;SDS011;65257;52.104;4.268;2024-02-23T03:49:52;23.30;;;4.38;;
76423;SDS011;65257;52.104;4.268;2024-02-23T03:52:18;14.55;;;2.92;;
76423;SDS011;65257;52.104;4.268;2024-02-23T03:54:43;10.10;;;2.08;;
76423;SDS011;65257;52.104;4.268;2024-02-23T03:57:08;9.02;;;2.10;;
76423;SDS011;65257;52.104;4.268;2024-02-23T03:59:35;12.45;;;2.45;;
76423;SDS011;65257;52.104;4.268;2024-02-23T04:02:02;12.48;;;2.20;;
76423;SDS011;65257;52.104;4.268;2024-02-23T04:04:28;6.90;;;1.73;;
76423;SDS011;65257;52.104;4.268;2024-02-23T04:06:53;8.90;;;1.85;;
76423;SDS011;65257;52.104;4.268;2024-02-23T04:09:19;6.82;;;2.22;;
76423;SDS011;65257;52.104;4.268;2024-02-23T04:11:46;5.88;;;1.83;;
76423;SDS011;65257;52.104;4.268;2024-02-23T04:14:12;9.15;;;1.83;;
76423;SDS011;65257;52.104;4.268;2024-02-23T04:16:38;8.27;;;2.17;;
76423;SDS011;65257;52.104;4.268;2024-02-23T04:19:03;8.25;;;2.60;;
76423;SDS011;65257;52.104;4.268;2024-02-23T04:21:29;6.38;;;2.00;;
76423;SDS011;65257;52.104;4.268;2024-02-23T04:23:55;11.63;;;2.47;;
76423;SDS011;65257;52.104;4.268;2024-02-23T04:26:20;8.75;;;1.80;;
76423;SDS011;65257;52.104;4.268;2024-02-23T04:28:46;10.05;;;1.92;;
76423;SDS011;65257;52.104;4.268;2024-02-23T04:31:11;6.43;;;1.90;;
76423;SDS011;65257;52.104;4.268;2024-02-23T04:33:37;10.43;;;2.92;;
76423;SDS011;65257;52.104;4.268;2024-02-23T04:36:03;9.80;;;2.50;;
76423;SDS011;65257;52.104;4.268;2024-02-23T04:38:30;5.07;;;1.50;;
76423;SDS011;65257;52.104;4.268;2024-02-23T04:40:55;8.68;;;1.60;;
76423;SDS011;65257;52.104;4.268;2024-02-23T04:43:21;12.38;;;2.22;;
76423;SDS011;65257;52.104;4.268;2024-02-23T04:45:48;8.20;;;2.05;;
76423;SDS011;65257;52.104;4.268;2024-02-23T04:48:13;5.55;;;1.17;;
76423;SDS011;65257;52.104;4.268;2024-02-23T04:50:39;6.00;;;1.85;;
76423;SDS011;65257;52.104;4.268;2024-02-23T04:53:04;10.90;;;1.77;;
76423;SDS011;65257;52.104;4.268;2024-02-23T04:55:29;4.35;;;1.70;;
76423;SDS011;65257;52.104;4.268;2024-02-23T04:57:55;4.57;;;1.10;;
76423;SDS011;65257;52.104;4.268;2024-02-23T05:00:21;4.53;;;1.17;;
76423;SDS011;65257;52.104;4.268;2024-02-23T05:02:46;1.67;;;0.85;;
76423;SDS011;65257;52.104;4.268;2024-02-23T05:05:11;3.45;;;0.93;;
76423;SDS011;65257;52.104;4.268;2024-02-23T05:07:37;5.03;;;1.25;;
76423;SDS011;65257;52.104;4.268;2024-02-23T05:10:03;4.28;;;0.98;;
76423;SDS011;65257;52.104;4.268;2024-02-23T05:12:29;6.18;;;1.92;;
76423;SDS011;65257;52.104;4.268;2024-02-23T05:14:54;8.65;;;1.85;;
76423;SDS011;65257;52.104;4.268;2024-02-23T05:17:19;5.13;;;1.40;;
76423;SDS011;65257;52.104;4.268;2024-02-23T05:19:45;4.32;;;1.08;;
76423;SDS011;65257;52.104;4.268;2024-02-23T05:22:11;4.55;;;1.35;;
76423;SDS011;65257;52.104;4.268;2024-02-23T05:24:37;7.55;;;1.30;;
76423;SDS011;65257;52.104;4.268;2024-02-23T05:27:02;8.05;;;2.00;;
76423;SDS011;65257;52.104;4.268;2024-02-23T05:29:28;4.50;;;1.50;;
76423;SDS011;65257;52.104;4.268;2024-02-23T05:31:53;3.67;;;1.20;;
76423;SDS011;65257;52.104;4.268;2024-02-23T05:34:19;7.63;;;1.50;;
76423;SDS011;65257;52.104;4.268;2024-02-23T05:36:45;7.72;;;1.60;;
76423;SDS011;65257;52.104;4.268;2024-02-23T05:39:11;5.00;;;1.83;;
76423;SDS011;65257;52.104;4.268;2024-02-23T05:41:38;8.15;;;1.83;;
76423;SDS011;65257;52.104;4.268;2024-02-23T05:44:04;6.05;;;1.92;;
76423;SDS011;65257;52.104;4.268;2024-02-23T05:46:32;7.35;;;1.95;;
76423;SDS011;65257;52.104;4.268;2024-02-23T05:48:58;4.93;;;1.60;;
76423;SDS011;65257;52.104;4.268;2024-02-23T05:51:23;9.60;;;2.65;;
76423;SDS011;65257;52.104;4.268;2024-02-23T05:53:48;4.18;;;1.90;;
76423;SDS011;65257;52.104;4.268;2024-02-23T05:56:14;8.00;;;2.40;;
76423;SDS011;65257;52.104;4.268;2024-02-23T05:58:40;5.10;;;2.15;;
76423;SDS011;65257;52.104;4.268;2024-02-23T06:01:05;3.85;;;2.00;;
76423;SDS011;65257;52.104;4.268;2024-02-23T06:03:32;7.50;;;2.47;;
76423;SDS011;65257;52.104;4.268;2024-02-23T06:05:57;5.03;;;2.35;;
76423;SDS011;65257;52.104;4.268;2024-02-23T06:08:23;4.72;;;2.42;;
76423;SDS011;65257;52.104;4.268;2024-02-23T06:10:48;5.50;;;2.53;;
76423;SDS011;65257;52.104;4.268;2024-02-23T06:13:14;5.82;;;2.10;;
76423;SDS011;65257;52.104;4.268;2024-02-23T06:15:39;5.47;;;2.65;;
76423;SDS011;65257;52.104;4.268;2024-02-23T06:18:05;7.80;;;2.78;;
76423;SDS011;65257;52.104;4.268;2024-02-23T06:20:31;8.27;;;2.65;;
76423;SDS011;65257;52.104;4.268;2024-02-23T06:22:57;6.50;;;2.42;;
76423;SDS011;65257;52.104;4.268;2024-02-23T06:25:22;9.25;;;2.70;;
76423;SDS011;65257;52.104;4.268;2024-02-23T06:27:48;9.82;;;2.85;;
76423;SDS011;65257;52.104;4.268;2024-02-23T06:30:13;5.75;;;2.67;;
76423;SDS011;65257;52.104;4.268;2024-02-23T06:32:38;6.97;;;2.47;;
76423;SDS011;65257;52.104;4.268;2024-02-23T06:35:04;8.15;;;2.45;;
76423;SDS011;65257;52.104;4.268;2024-02-23T06:37:32;5.88;;;2.42;;
76423;SDS011;65257;52.104;4.268;2024-02-23T06:39:58;6.72;;;2.72;;
76423;SDS011;65257;52.104;4.268;2024-02-23T06:42:23;12.65;;;3.20;;
76423;SDS011;65257;52.104;4.268;2024-02-23T06:44:49;8.00;;;2.80;;
76423;SDS011;65257;52.104;4.268;2024-02-23T06:47:15;7.25;;;2.47;;
76423;SDS011;65257;52.104;4.268;2024-02-23T06:49:43;6.68;;;2.00;;
76423;SDS011;65257;52.104;4.268;2024-02-23T06:52:09;4.85;;;2.25;;
76423;SDS011;65257;52.104;4.268;2024-02-23T06:54:36;4.35;;;2.08;;
76423;SDS011;65257;52.104;4.268;2024-02-23T06:57:01;7.30;;;2.40;;
76423;SDS011;65257;52.104;4.268;2024-02-23T06:59:27;9.05;;;2.40;;
76423;SDS011;65257;52.104;4.268;2024-02-23T07:01:53;5.57;;;2.38;;
76423;SDS011;65257;52.104;4.268;2024-02-23T07:04:19;8.10;;;2.20;;
76423;SDS011;65257;52.104;4.268;2024-02-23T07:06:44;7.97;;;2.35;;
76423;SDS011;65257;52.104;4.268;2024-02-23T07:09:10;7.68;;;2.78;;
76423;SDS011;65257;52.104;4.268;2024-02-23T07:11:40;4.30;;;1.98;;
76423;SDS011;65257;52.104;4.268;2024-02-23T07:14:08;6.78;;;2.50;;
76423;SDS011;65257;52.104;4.268;2024-02-23T07:16:37;4.43;;;1.90;;
76423;SDS011;65257;52.104;4.268;2024-02-23T07:19:04;10.35;;;2.58;;
76423;SDS011;65257;52.104;4.268;2024-02-23T07:21:29;7.40;;;2.28;;
76423;SDS011;65257;52.104;4.268;2024-02-23T07:23:54;3.78;;;1.98;;
76423;SDS011;65257;52.104;4.268;2024-02-23T07:26:20;4.38;;;1.90;;
76423;SDS011;65257;52.104;4.268;2024-02-23T07:28:47;13.55;;;2.72;;
76423;SDS011;65257;52.104;4.268;2024-02-23T07:31:14;8.88;;;2.50;;
76423;SDS011;65257;52.104;4.268;2024-02-23T07:33:40;9.05;;;2.80;;
76423;SDS011;65257;52.104;4.268;2024-02-23T07:36:06;6.47;;;2.25;;
76423;SDS011;65257;52.104;4.268;2024-02-23T07:38:33;7.57;;;2.85;;
76423;SDS011;65257;52.104;4.268;2024-02-23T07:40:59;7.47;;;2.60;;
76423;SDS011;65257;52.104;4.268;2024-02-23T07:43:24;8.65;;;3.17;;
76423;SDS011;65257;52.104;4.268;2024-02-23T07:45:51;6.25;;;1.92;;
76423;SDS011;65257;52.104;4.268;2024-02-23T07:48:16;5.45;;;1.67;;
76423;SDS011;65257;52.104;4.268;2024-02-23T07:50:42;5.25;;;2.00;;
76423;SDS011;65257;52.104;4.268;2024-02-23T07:53:07;5.32;;;1.95;;
76423;SDS011;65257;52.104;4.268;2024-02-23T07:55:32;8.25;;;1.85;;
76423;SDS011;65257;52.104;4.268;2024-02-23T07:57:58;5.88;;;2.10;;
76423;SDS011;65257;52.104;4.268;2024-02-23T08:02:51;8.63;;;2.35;;
76423;SDS011;65257;52.104;4.268;2024-02-23T08:05:25;6.65;;;2.53;;
76423;SDS011;65257;52.104;4.268;2024-02-23T08:07:50;9.65;;;2.65;;
76423;SDS011;65257;52.104;4.268;2024-02-23T08:10:16;4.80;;;2.78;;
76423;SDS011;65257;52.104;4.268;2024-02-23T08:12:41;8.95;;;2.97;;
76423;SDS011;65257;52.104;4.268;2024-02-23T08:15:07;8.57;;;2.67;;
76423;SDS011;65257;52.104;4.268;2024-02-23T08:17:32;7.47;;;3.00;;
76423;SDS011;65257;52.104;4.268;2024-02-23T08:19:58;11.73;;;3.03;;
76423;SDS011;65257;52.104;4.268;2024-02-23T08:22:23;9.73;;;2.08;;
76423;SDS011;65257;52.104;4.268;2024-02-23T08:24:49;7.53;;;2.47;;
76423;SDS011;65257;52.104;4.268;2024-02-23T08:27:14;5.57;;;2.03;;
76423;SDS011;65257;52.104;4.268;2024-02-23T08:29:40;9.95;;;2.90;;
76423;SDS011;65257;52.104;4.268;2024-02-23T08:32:06;6.75;;;2.30;;
76423;SDS011;65257;52.104;4.268;2024-02-23T08:34:32;7.00;;;2.90;;
76423;SDS011;65257;52.104;4.268;2024-02-23T08:36:59;2.58;;;2.00;;
76423;SDS011;65257;52.104;4.268;2024-02-23T08:39:24;10.45;;;2.90;;
76423;SDS011;65257;52.104;4.268;2024-02-23T08:41:50;7.13;;;2.38;;
76423;SDS011;65257;52.104;4.268;2024-02-23T08:44:16;7.97;;;2.05;;
76423;SDS011;65257;52.104;4.268;2024-02-23T08:46:42;9.07;;;2.38;;
76423;SDS011;65257;52.104;4.268;2024-02-23T08:49:07;6.90;;;2.30;;
76423;SDS011;65257;52.104;4.268;2024-02-23T08:51:33;11.43;;;2.67;;
76423;SDS011;65257;52.104;4.268;2024-02-23T08:53:58;8.93;;;2.70;;
76423;SDS011;65257;52.104;4.268;2024-02-23T08:56:28;5.72;;;1.77;;
76423;SDS011;65257;52.104;4.268;2024-02-23T08:58:54;5.38;;;1.63;;
76423;SDS011;65257;52.104;4.268;2024-02-23T09:01:19;7.68;;;2.63;;
76423;SDS011;65257;52.104;4.268;2024-02-23T09:03:44;6.25;;;2.10;;
76423;SDS011;65257;52.104;4.268;2024-02-23T09:06:10;8.57;;;2.53;;
76423;SDS011;65257;52.104;4.268;2024-02-23T09:08:35;4.65;;;1.90;;
76423;SDS011;65257;52.104;4.268;2024-02-23T09:11:01;9.07;;;1.90;;
76423;SDS011;65257;52.104;4.268;2024-02-23T09:13:26;9.25;;;3.17;;
76423;SDS011;65257;52.104;4.268;2024-02-23T09:15:54;10.55;;;3.13;;
76423;SDS011;65257;52.104;4.268;2024-02-23T09:18:20;6.80;;;2.13;;
76423;SDS011;65257;52.104;4.268;2024-02-23T09:20:45;5.57;;;1.77;;
76423;SDS011;65257;52.104;4.268;2024-02-23T09:23:11;13.88;;;2.70;;
76423;SDS011;65257;52.104;4.268;2024-02-23T09:25:37;9.32;;;1.90;;
76423;SDS011;65257;52.104;4.268;2024-02-23T09:28:02;11.73;;;2.85;;
76423;SDS011;65257;52.104;4.268;2024-02-23T09:30:28;6.88;;;2.08;;
76423;SDS011;65257;52.104;4.268;2024-02-23T09:32:54;8.32;;;2.10;;
76423;SDS011;65257;52.104;4.268;2024-02-23T09:35:19;6.70;;;2.38;;
76423;SDS011;65257;52.104;4.268;2024-02-23T09:37:45;5.25;;;2.30;;
76423;SDS011;65257;52.104;4.268;2024-02-23T09:40:10;6.05;;;2.30;;
76423;SDS011;65257;52.104;4.268;2024-02-23T09:42:36;5.50;;;1.90;;
76423;SDS011;65257;52.104;4.268;2024-02-23T09:45:03;8.75;;;2.58;;
76423;SDS011;65257;52.104;4.268;2024-02-23T09:47:30;6.25;;;2.33;;
76423;SDS011;65257;52.104;4.268;2024-02-23T09:49:56;7.07;;;2.15;;
76423;SDS011;65257;52.104;4.268;2024-02-23T09:52:22;5.07;;;2.20;;
76423;SDS011;65257;52.104;4.268;2024-02-23T09:54:48;6.50;;;2.03;;
76423;SDS011;65257;52.104;4.268;2024-02-23T09:57:14;9.05;;;2.30;;
76423;SDS011;65257;52.104;4.268;2024-02-23T09:59:41;8.27;;;2.15;;
76423;SDS011;65257;52.104;4.268;2024-02-23T10:02:10;4.97;;;1.77;;
76423;SDS011;65257;52.104;4.268;2024-02-23T10:04:42;7.05;;;2.05;;
76423;SDS011;65257;52.104;4.268;2024-02-23T10:07:08;8.02;;;2.05;;
76423;SDS011;65257;52.104;4.268;2024-02-23T10:09:34;7.78;;;2.67;;
76423;SDS011;65257;52.104;4.268;2024-02-23T10:12:01;8.88;;;2.38;;
76423;SDS011;65257;52.104;4.268;2024-02-23T10:14:27;7.93;;;2.50;;
76423;SDS011;65257;52.104;4.268;2024-02-23T10:16:53;7.18;;;2.65;;
76423;SDS011;65257;52.104;4.268;2024-02-23T10:19:20;7.85;;;2.15;;
76423;SDS011;65257;52.104;4.268;2024-02-23T10:21:45;9.02;;;2.67;;
76423;SDS011;65257;52.104;4.268;2024-02-23T10:24:11;6.20;;;2.53;;
76423;SDS011;65257;52.104;4.268;2024-02-23T10:26:37;7.05;;;2.20;;
76423;SDS011;65257;52.104;4.268;2024-02-23T10:29:02;10.27;;;3.00;;
76423;SDS011;65257;52.104;4.268;2024-02-23T10:31:28;7.13;;;2.65;;
76423;SDS011;65257;52.104;4.268;2024-02-23T10:34:00;9.05;;;2.45;;
76423;SDS011;65257;52.104;4.268;2024-02-23T10:36:34;9.15;;;2.28;;
76423;SDS011;65257;52.104;4.268;2024-02-23T10:39:01;8.57;;;2.40;;
76423;SDS011;65257;52.104;4.268;2024-02-23T10:41:31;12.18;;;2.50;;
76423;SDS011;65257;52.104;4.268;2024-02-23T10:43:59;8.38;;;2.60;;
76423;SDS011;65257;52.104;4.268;2024-02-23T10:46:26;10.27;;;2.55;;
76423;SDS011;65257;52.104;4.268;2024-02-23T10:48:52;9.02;;;3.17;;
76423;SDS011;65257;52.104;4.268;2024-02-23T10:51:20;5.07;;;1.50;;
76423;SDS011;65257;52.104;4.268;2024-02-23T10:53:46;5.40;;;2.00;;
76423;SDS011;65257;52.104;4.268;2024-02-23T10:56:13;6.47;;;1.80;;
76423;SDS011;65257;52.104;4.268;2024-02-23T10:58:39;6.30;;;2.20;;
76423;SDS011;65257;52.104;4.268;2024-02-23T11:01:05;5.20;;;1.85;;
76423;SDS011;65257;52.104;4.268;2024-02-23T11:03:34;6.15;;;1.90;;
76423;SDS011;65257;52.104;4.268;2024-02-23T11:06:02;8.90;;;2.80;;
76423;SDS011;65257;52.104;4.268;2024-02-23T11:08:32;3.55;;;1.63;;
76423;SDS011;65257;52.104;4.268;2024-02-23T11:10:57;5.30;;;2.10;;
76423;SDS011;65257;52.104;4.268;2024-02-23T11:13:36;10.95;;;2.40;;
76423;SDS011;65257;52.104;4.268;2024-02-23T11:16:05;9.93;;;3.33;;
76423;SDS011;65257;52.104;4.268;2024-02-23T11:21:02;9.05;;;2.22;;
76423;SDS011;65257;52.104;4.268;2024-02-23T11:23:41;6.57;;;2.28;;
76423;SDS011;65257;52.104;4.268;2024-02-23T11:26:11;5.60;;;1.90;;
76423;SDS011;65257;52.104;4.268;2024-02-23T11:31:20;9.05;;;2.45;;
76423;SDS011;65257;52.104;4.268;2024-02-23T11:33:53;10.00;;;2.40;;
76423;SDS011;65257;52.104;4.268;2024-02-23T11:36:30;9.50;;;2.05;;
76423;SDS011;65257;52.104;4.268;2024-02-23T11:38:57;6.97;;;2.83;;
76423;SDS011;65257;52.104;4.268;2024-02-23T11:41:24;5.38;;;2.08;;
76423;SDS011;65257;52.104;4.268;2024-02-23T11:43:51;7.95;;;2.97;;
76423;SDS011;65257;52.104;4.268;2024-02-23T11:46:18;3.50;;;2.05;;
76423;SDS011;65257;52.104;4.268;2024-02-23T11:48:44;6.38;;;2.22;;
76423;SDS011;65257;52.104;4.268;2024-02-23T11:53:37;10.73;;;2.75;;
76423;SDS011;65257;52.104;4.268;2024-02-23T11:56:04;7.72;;;2.13;;
76423;SDS011;65257;52.104;4.268;2024-02-23T11:58:32;13.00;;;3.58;;
76423;SDS011;65257;52.104;4.268;2024-02-23T12:00:59;10.25;;;2.60;;
76423;SDS011;65257;52.104;4.268;2024-02-23T12:03:27;8.57;;;2.88;;
76423;SDS011;65257;52.104;4.268;2024-02-23T12:05:53;4.78;;;1.90;;
76423;SDS011;65257;52.104;4.268;2024-02-23T12:08:18;8.52;;;2.50;;
76423;SDS011;65257;52.104;4.268;2024-02-23T12:10:44;11.75;;;2.58;;
76423;SDS011;65257;52.104;4.268;2024-02-23T12:13:10;8.35;;;2.97;;
76423;SDS011;65257;52.104;4.268;2024-02-23T12:15:35;9.77;;;2.63;;
76423;SDS011;65257;52.104;4.268;2024-02-23T12:18:02;9.80;;;2.78;;
76423;SDS011;65257;52.104;4.268;2024-02-23T12:22:56;4.27;;;1.67;;
76423;SDS011;65257;52.104;4.268;2024-02-23T12:25:22;7.55;;;2.50;;
76423;SDS011;65257;52.104;4.268;2024-02-23T12:27:53;9.65;;;3.22;;
76423;SDS011;65257;52.104;4.268;2024-02-23T12:30:19;8.98;;;2.45;;
76423;SDS011;65257;52.104;4.268;2024-02-23T12:32:44;20.83;;;4.35;;
76423;SDS011;65257;52.104;4.268;2024-02-23T12:35:10;10.25;;;3.25;;
76423;SDS011;65257;52.104;4.268;2024-02-23T12:37:39;7.25;;;2.10;;
76423;SDS011;65257;52.104;4.268;2024-02-23T12:40:06;7.20;;;2.50;;
76423;SDS011;65257;52.104;4.268;2024-02-23T12:42:32;13.23;;;3.58;;
76423;SDS011;65257;52.104;4.268;2024-02-23T12:44:57;21.17;;;4.43;;
76423;SDS011;65257;52.104;4.268;2024-02-23T12:47:22;10.40;;;2.70;;
76423;SDS011;65257;52.104;4.268;2024-02-23T12:49:48;22.27;;;4.97;;
76423;SDS011;65257;52.104;4.268;2024-02-23T12:52:13;11.70;;;2.47;;
76423;SDS011;65257;52.104;4.268;2024-02-23T12:54:39;7.88;;;2.45;;
76423;SDS011;65257;52.104;4.268;2024-02-23T12:57:04;6.70;;;2.40;;
76423;SDS011;65257;52.104;4.268;2024-02-23T12:59:30;5.20;;;1.90;;
76423;SDS011;65257;52.104;4.268;2024-02-23T13:01:55;8.80;;;2.17;;
76423;SDS011;65257;52.104;4.268;2024-02-23T13:04:21;7.07;;;2.28;;
76423;SDS011;65257;52.104;4.268;2024-02-23T13:06:46;7.28;;;1.90;;
76423;SDS011;65257;52.104;4.268;2024-02-23T13:09:13;11.95;;;2.63;;
76423;SDS011;65257;52.104;4.268;2024-02-23T13:11:40;7.45;;;2.10;;
76423;SDS011;65257;52.104;4.268;2024-02-23T13:14:05;7.20;;;1.58;;
76423;SDS011;65257;52.104;4.268;2024-02-23T13:16:31;7.95;;;1.80;;
76423;SDS011;65257;52.104;4.268;2024-02-23T13:18:56;5.60;;;2.15;;
76423;SDS011;65257;52.104;4.268;2024-02-23T13:21:22;6.35;;;1.60;;
76423;SDS011;65257;52.104;4.268;2024-02-23T13:23:49;11.45;;;2.25;;
76423;SDS011;65257;52.104;4.268;2024-02-23T13:26:14;8.85;;;2.42;;
76423;SDS011;65257;52.104;4.268;2024-02-23T13:28:43;6.60;;;1.80;;
76423;SDS011;65257;52.104;4.268;2024-02-23T13:31:09;7.00;;;1.95;;
76423;SDS011;65257;52.104;4.268;2024-02-23T13:33:34;12.90;;;3.05;;
76423;SDS011;65257;52.104;4.268;2024-02-23T13:36:00;21.67;;;4.47;;
76423;SDS011;65257;52.104;4.268;2024-02-23T13:38:25;21.73;;;4.65;;
76423;SDS011;65257;52.104;4.268;2024-02-23T13:40:51;13.63;;;3.13;;
76423;SDS011;65257;52.104;4.268;2024-02-23T13:43:16;24.65;;;5.13;;
76423;SDS011;65257;52.104;4.268;2024-02-23T13:45:48;23.70;;;4.13;;
76423;SDS011;65257;52.104;4.268;2024-02-23T13:48:18;25.58;;;5.75;;
76423;SDS011;65257;52.104;4.268;2024-02-23T13:50:45;16.63;;;3.13;;
76423;SDS011;65257;52.104;4.268;2024-02-23T13:53:11;7.90;;;2.33;;
76423;SDS011;65257;52.104;4.268;2024-02-23T13:55:37;13.20;;;2.85;;
76423;SDS011;65257;52.104;4.268;2024-02-23T13:58:03;8.93;;;1.88;;
76423;SDS011;65257;52.104;4.268;2024-02-23T14:00:29;20.52;;;3.95;;
76423;SDS011;65257;52.104;4.268;2024-02-23T14:02:54;24.95;;;5.18;;
76423;SDS011;65257;52.104;4.268;2024-02-23T14:05:19;21.98;;;3.90;;
76423;SDS011;65257;52.104;4.268;2024-02-23T14:07:46;21.67;;;3.10;;
76423;SDS011;65257;52.104;4.268;2024-02-23T14:10:12;29.25;;;5.13;;
76423;SDS011;65257;52.104;4.268;2024-02-23T14:12:38;12.10;;;3.20;;
76423;SDS011;65257;52.104;4.268;2024-02-23T14:15:04;12.15;;;2.30;;
76423;SDS011;65257;52.104;4.268;2024-02-23T14:17:30;20.35;;;3.78;;
76423;SDS011;65257;52.104;4.268;2024-02-23T14:19:56;23.02;;;4.28;;
76423;SDS011;65257;52.104;4.268;2024-02-23T14:22:21;20.45;;;4.32;;
76423;SDS011;65257;52.104;4.268;2024-02-23T14:24:47;10.25;;;2.60;;
76423;SDS011;65257;52.104;4.268;2024-02-23T14:27:12;8.15;;;1.77;;
76423;SDS011;65257;52.104;4.268;2024-02-23T14:29:38;5.10;;;1.95;;
76423;SDS011;65257;52.104;4.268;2024-02-23T14:32:03;7.13;;;1.63;;
76423;SDS011;65257;52.104;4.268;2024-02-23T14:34:29;8.75;;;2.17;;
76423;SDS011;65257;52.104;4.268;2024-02-23T14:36:55;6.03;;;1.70;;
76423;SDS011;65257;52.104;4.268;2024-02-23T14:39:21;6.55;;;1.48;;
76423;SDS011;65257;52.104;4.268;2024-02-23T14:41:47;6.57;;;1.40;;
76423;SDS011;65257;52.104;4.268;2024-02-23T14:44:13;5.85;;;1.73;;
76423;SDS011;65257;52.104;4.268;2024-02-23T14:46:39;6.80;;;2.00;;
76423;SDS011;65257;52.104;4.268;2024-02-23T14:49:05;8.88;;;2.10;;